createdAt,value
2017-11-12T00:01:20.656Z,11.63
2017-11-12T00:03:25.382Z,13.23
2017-11-12T00:05:27.994Z,12.93
2017-11-12T00:07:29.723Z,11.50
2017-11-12T00:09:30.889Z,12.80
2017-11-12T00:11:32.191Z,13.27
2017-11-12T00:13:33.293Z,12.17
2017-11-12T00:15:34.367Z,11.27
2017-11-12T00:17:35.532Z,12.00
2017-11-12T00:19:36.677Z,13.40
2017-11-12T00:21:37.692Z,10.77
2017-11-12T00:23:39.439Z,11.73
2017-11-12T00:25:43.322Z,11.90
2017-11-12T00:27:44.466Z,11.97
2017-11-12T00:29:45.455Z,11.90
2017-11-12T00:31:50.468Z,12.30
2017-11-12T00:33:59.220Z,12.57
2017-11-12T00:36:07.000Z,12.20
2017-11-12T00:38:08.094Z,11.20
2017-11-12T00:40:09.105Z,12.00
2017-11-12T00:42:10.342Z,12.03
2017-11-12T00:44:11.586Z,11.57
2017-11-12T00:48:21.743Z,11.80
2017-11-12T00:50:22.936Z,10.97
2017-11-12T00:52:24.045Z,11.57
2017-11-12T00:54:26.734Z,12.17
2017-11-12T00:56:27.925Z,11.57
2017-11-12T00:58:28.904Z,12.00
2017-11-12T01:00:31.444Z,12.80
2017-11-12T01:02:32.611Z,11.87
2017-11-12T01:04:33.612Z,11.80
2017-11-12T01:06:34.611Z,13.30
2017-11-12T01:08:35.636Z,11.97
2017-11-12T01:10:38.611Z,11.60
2017-11-12T01:12:39.728Z,12.40
2017-11-12T01:14:40.714Z,11.87
2017-11-12T01:16:41.683Z,12.00
2017-11-12T01:18:44.852Z,11.83
2017-11-12T01:20:46.007Z,11.77
2017-11-12T01:22:47.142Z,11.70
2017-11-12T01:24:48.400Z,11.57
2017-11-12T01:26:49.610Z,11.70
2017-11-12T01:28:50.789Z,12.00
2017-11-12T01:30:51.998Z,12.67
2017-11-12T01:32:53.606Z,11.70
2017-11-12T01:34:54.655Z,11.37
2017-11-12T01:36:55.697Z,12.20
2017-11-12T01:38:56.904Z,12.20
2017-11-12T01:41:00.423Z,11.30
2017-11-12T01:43:01.539Z,11.57
2017-11-12T01:45:02.597Z,10.87
2017-11-12T01:47:03.761Z,11.40
2017-11-12T01:49:04.788Z,10.73
2017-11-12T01:51:06.931Z,9.47
2017-11-12T01:53:08.367Z,10.07
2017-11-12T01:55:09.490Z,8.60
2017-11-12T01:57:10.559Z,8.40
2017-11-12T01:59:11.579Z,8.40
2017-11-12T02:01:12.876Z,10.80
2017-11-12T02:03:13.908Z,9.43
2017-11-12T02:05:14.938Z,11.13
2017-11-12T02:07:17.596Z,10.30
2017-11-12T02:09:22.448Z,10.80
2017-11-12T02:11:23.529Z,10.80
2017-11-12T02:13:24.864Z,9.53
2017-11-12T02:15:26.074Z,10.90
2017-11-12T02:17:27.119Z,11.40
2017-11-12T02:19:28.094Z,10.20
2017-11-12T02:21:29.965Z,10.80
2017-11-12T02:23:31.263Z,11.43
2017-11-12T02:25:32.987Z,11.37
2017-11-12T02:27:34.065Z,11.50
2017-11-12T02:29:35.114Z,11.80
2017-11-12T02:31:36.431Z,11.40
2017-11-12T02:33:39.137Z,11.50
2017-11-12T02:35:40.243Z,11.80
2017-11-12T02:37:41.213Z,11.83
2017-11-12T02:39:47.941Z,11.50
2017-11-12T02:41:49.154Z,12.70
2017-11-12T02:43:50.154Z,11.53
2017-11-12T02:45:51.182Z,12.23
2017-11-12T02:47:52.686Z,12.00
2017-11-12T02:49:53.950Z,10.87
2017-11-12T02:51:55.006Z,12.63
2017-11-12T02:53:56.000Z,11.10
2017-11-12T02:55:58.015Z,11.60
2017-11-12T02:58:00.262Z,11.60
2017-11-12T03:00:02.336Z,12.03
2017-11-12T03:02:03.495Z,10.90
2017-11-12T03:04:04.555Z,13.70
2017-11-12T03:06:05.572Z,11.63
2017-11-12T03:08:09.477Z,11.00
2017-11-12T03:10:10.636Z,11.57
2017-11-12T03:12:11.633Z,11.77
2017-11-12T03:14:13.927Z,11.50
2017-11-12T03:16:14.958Z,12.50
2017-11-12T03:18:15.930Z,11.93
2017-11-12T03:20:19.421Z,11.37
2017-11-12T03:22:20.490Z,11.30
2017-11-12T03:26:34.671Z,10.80
2017-11-12T03:28:35.785Z,10.67
2017-11-12T03:30:37.204Z,10.47
2017-11-12T03:32:38.757Z,10.80
2017-11-12T03:37:04.584Z,9.53
2017-11-12T03:39:05.611Z,9.10
2017-11-12T03:41:06.606Z,8.97
2017-11-12T03:45:35.575Z,9.60
2017-11-12T03:47:44.962Z,9.90
2017-11-12T03:49:45.991Z,9.77
2017-11-12T03:51:47.041Z,10.67
2017-11-12T03:53:48.057Z,10.33
2017-11-12T03:56:08.212Z,10.80
2017-11-12T04:00:47.943Z,11.03
2017-11-12T04:02:49.069Z,11.17
2017-11-12T04:04:50.549Z,10.77
2017-11-12T04:06:51.582Z,9.70
2017-11-12T04:08:52.654Z,11.37
2017-11-12T04:10:53.683Z,11.43
2017-11-12T04:12:55.351Z,10.77
2017-11-12T04:14:57.684Z,11.87
2017-11-12T04:19:36.657Z,11.40
2017-11-12T04:21:37.702Z,13.37
2017-11-12T04:23:38.783Z,13.77
2017-11-12T04:25:43.038Z,14.70
2017-11-12T04:27:44.097Z,14.27
2017-11-12T04:32:14.618Z,14.50
2017-11-12T04:34:20.589Z,16.90
2017-11-12T04:36:21.593Z,15.97
2017-11-12T04:38:27.821Z,14.70
2017-11-12T04:40:28.931Z,15.60
2017-11-12T04:44:47.270Z,16.30
2017-11-12T04:54:21.678Z,13.60
2017-11-12T04:56:22.821Z,15.53
2017-11-12T04:58:24.461Z,15.97
2017-11-12T05:03:05.524Z,16.60
2017-11-12T05:05:06.616Z,15.77
2017-11-12T05:07:15.949Z,17.00
2017-11-12T05:09:21.495Z,16.73
2017-11-12T05:11:36.311Z,16.17
2017-11-12T05:16:31.560Z,16.10
2017-11-12T05:18:38.750Z,15.60
2017-11-12T05:23:09.354Z,16.30
2017-11-12T05:25:41.210Z,17.70
2017-11-12T05:27:42.701Z,16.77
2017-11-12T05:30:09.738Z,16.33
2017-11-12T05:32:11.306Z,16.67
2017-11-12T05:36:40.529Z,16.40
2017-11-12T05:38:41.571Z,16.47
2017-11-12T05:40:43.174Z,18.30
2017-11-12T05:45:26.846Z,17.37
2017-11-12T05:47:28.096Z,18.80
2017-11-12T05:49:29.143Z,19.00
2017-11-12T05:53:58.118Z,20.00
2017-11-12T05:58:26.702Z,19.90
2017-11-12T06:02:55.224Z,20.17
2017-11-12T06:04:56.545Z,19.50
2017-11-12T06:07:10.147Z,18.97
2017-11-12T06:09:11.306Z,19.30
2017-11-12T06:11:12.375Z,20.37
2017-11-12T06:20:38.381Z,20.27
2017-11-12T06:22:39.427Z,20.90
2017-11-12T06:24:40.408Z,18.83
2017-11-12T06:26:44.347Z,21.47
2017-11-12T06:31:23.817Z,19.80
2017-11-12T06:33:25.287Z,19.20
2017-11-12T06:35:26.380Z,20.47
2017-11-12T06:37:27.504Z,19.33
2017-11-12T06:41:52.309Z,18.73
2017-11-12T06:43:54.482Z,22.03
2017-11-12T06:46:10.014Z,19.07
2017-11-12T06:48:15.296Z,20.40
2017-11-12T06:50:23.411Z,22.87
2017-11-12T06:52:26.268Z,23.13
2017-11-12T06:54:27.410Z,22.07
2017-11-12T06:56:28.535Z,25.53
2017-11-12T07:01:07.160Z,22.00
2017-11-12T07:03:11.523Z,23.30
2017-11-12T07:05:13.152Z,24.37
2017-11-12T07:07:14.323Z,24.17
2017-11-12T07:09:15.543Z,24.13
2017-11-12T07:11:17.456Z,25.43
2017-11-12T07:13:22.282Z,25.30
2017-11-12T07:15:23.414Z,25.40
2017-11-12T07:17:24.469Z,25.20
2017-11-12T07:19:25.472Z,25.97
2017-11-12T07:21:26.444Z,25.53
2017-11-12T07:23:27.994Z,25.80
2017-11-12T07:25:29.000Z,26.90
2017-11-12T07:27:30.278Z,24.27
2017-11-12T07:29:33.194Z,27.53
2017-11-12T07:31:34.356Z,25.93
2017-11-12T07:33:35.540Z,26.17
2017-11-12T07:35:36.769Z,28.07
2017-11-12T07:37:37.958Z,26.00
2017-11-12T07:39:39.113Z,25.60
2017-11-12T07:41:40.115Z,25.17
2017-11-12T07:43:41.098Z,26.27
2017-11-12T07:45:48.443Z,25.17
2017-11-12T07:47:52.044Z,23.27
2017-11-12T07:52:10.093Z,22.70
2017-11-12T07:56:48.973Z,20.00
2017-11-12T07:59:02.144Z,21.83
2017-11-12T08:01:04.524Z,23.67
2017-11-12T08:03:06.784Z,22.87
2017-11-12T08:05:10.573Z,23.60
2017-11-12T08:07:13.796Z,23.03
2017-11-12T08:09:14.946Z,22.67
2017-11-12T08:11:15.992Z,24.53
2017-11-12T08:13:17.019Z,23.07
2017-11-12T08:15:18.266Z,22.97
2017-11-12T08:17:19.312Z,23.27
2017-11-12T08:19:26.916Z,22.33
2017-11-12T08:21:28.035Z,22.30
2017-11-12T08:23:29.914Z,22.77
2017-11-12T08:25:33.211Z,20.20
2017-11-12T08:27:34.874Z,20.20
2017-11-12T08:29:36.184Z,20.97
2017-11-12T08:31:37.458Z,20.03
2017-11-12T08:33:38.579Z,24.67
2017-11-12T08:35:40.855Z,23.43
2017-11-12T08:37:45.503Z,26.27
2017-11-12T08:42:15.309Z,25.93
2017-11-12T08:44:16.477Z,23.43
2017-11-12T08:46:19.271Z,23.33
2017-11-12T08:48:20.531Z,26.83
2017-11-12T08:50:21.802Z,26.10
2017-11-12T08:52:22.885Z,25.13
2017-11-12T08:54:24.884Z,24.47
2017-11-12T08:56:26.043Z,24.90
2017-11-12T08:58:27.521Z,25.67
2017-11-12T09:00:28.594Z,27.50
2017-11-12T09:02:30.272Z,25.70
2017-11-12T09:04:32.102Z,26.80
2017-11-12T09:06:33.235Z,33.63
2017-11-12T09:08:35.039Z,30.57
2017-11-12T09:10:36.248Z,38.95
2017-11-12T09:12:37.522Z,33.03
2017-11-12T09:14:39.868Z,32.07
2017-11-12T09:16:41.145Z,30.10
2017-11-12T09:18:42.976Z,30.60
2017-11-12T09:20:45.932Z,31.80
2017-11-12T09:22:47.005Z,30.30
2017-11-12T09:24:59.125Z,30.20
2017-11-12T09:27:00.890Z,31.50
2017-11-12T09:29:02.633Z,29.50
2017-11-12T09:31:03.646Z,30.90
2017-11-12T09:33:04.635Z,28.13
2017-11-12T09:35:05.678Z,29.60
2017-11-12T09:37:06.680Z,31.70
2017-11-12T09:39:07.764Z,26.77
2017-11-12T09:41:08.776Z,28.40
2017-11-12T09:43:09.880Z,29.70
2017-11-12T09:45:10.936Z,34.42
2017-11-12T09:47:12.745Z,32.63
2017-11-12T09:49:13.766Z,29.00
2017-11-12T09:51:17.449Z,29.10
2017-11-12T09:53:18.619Z,27.70
2017-11-12T09:55:19.658Z,28.17
2017-11-12T09:57:20.651Z,22.07
2017-11-12T09:59:21.654Z,23.90
2017-11-12T10:01:22.636Z,23.20
2017-11-12T10:03:23.610Z,24.70
2017-11-12T10:05:24.625Z,24.10
2017-11-12T10:07:25.679Z,26.40
2017-11-12T10:09:26.730Z,23.00
2017-11-12T10:12:15.780Z,24.00
2017-11-12T10:14:17.754Z,23.00
2017-11-12T10:16:26.241Z,21.57
2017-11-12T10:18:27.336Z,23.10
2017-11-12T10:20:28.440Z,21.70
2017-11-12T10:22:29.472Z,23.73
2017-11-12T10:24:30.563Z,23.23
2017-11-12T10:26:31.595Z,23.30
2017-11-12T10:28:33.342Z,20.73
2017-11-12T10:30:34.294Z,20.00
2017-11-12T10:32:47.493Z,18.93
2017-11-12T10:34:48.524Z,18.40
2017-11-12T10:36:49.512Z,19.63
2017-11-12T10:38:57.358Z,16.60
2017-11-12T10:40:59.473Z,17.77
2017-11-12T10:43:01.497Z,18.67
2017-11-12T10:45:06.598Z,18.20
2017-11-12T10:52:22.668Z,15.03
2017-11-12T10:54:23.709Z,15.47
2017-11-12T10:56:24.752Z,14.60
2017-11-12T10:58:25.757Z,18.13
2017-11-12T11:00:26.756Z,18.27
2017-11-12T11:02:44.861Z,17.10
2017-11-12T11:04:45.866Z,16.47
2017-11-12T11:06:46.905Z,14.97
2017-11-12T11:08:47.878Z,15.13
2017-11-12T11:10:48.890Z,13.03
2017-11-12T11:12:49.953Z,14.63
2017-11-12T11:14:51.671Z,14.10
2017-11-12T11:16:53.501Z,14.57
2017-11-12T11:18:55.295Z,13.07
2017-11-12T11:20:56.344Z,14.60
2017-11-12T11:22:57.414Z,13.40
2017-11-12T11:24:58.405Z,13.27
2017-11-12T11:26:59.467Z,13.90
2017-11-12T11:29:00.517Z,14.70
2017-11-12T11:31:14.400Z,12.03
2017-11-12T11:33:15.413Z,12.97
2017-11-12T11:35:16.442Z,13.33
2017-11-12T11:37:17.511Z,12.70
2017-11-12T11:39:18.595Z,10.60
2017-11-12T11:41:19.747Z,10.13
2017-11-12T12:09:15.648Z,11.70
2017-11-12T12:11:16.802Z,13.50
2017-11-12T12:13:17.906Z,14.40
2017-11-12T12:15:19.826Z,14.93
2017-11-12T12:17:21.217Z,14.13
2017-11-12T12:19:22.304Z,15.07
2017-11-12T12:21:23.399Z,16.33
2017-11-12T12:23:24.430Z,16.07
2017-11-12T12:25:25.535Z,14.97
2017-11-12T12:27:28.643Z,13.93
2017-11-12T12:29:29.811Z,13.40
2017-11-12T12:31:31.042Z,14.00
2017-11-12T12:33:32.278Z,9.60
2017-11-12T12:35:34.215Z,4.97
2017-11-12T12:37:35.553Z,5.50
2017-11-12T12:39:47.720Z,6.03
2017-11-12T12:41:49.025Z,4.90
2017-11-12T12:43:50.138Z,5.60
2017-11-12T12:45:51.199Z,5.37
2017-11-12T12:47:52.286Z,5.57
2017-11-12T12:49:54.306Z,6.17
2017-11-12T12:51:55.650Z,6.47
2017-11-12T12:54:18.125Z,6.23
2017-11-12T12:56:23.077Z,6.40
2017-11-12T12:58:26.476Z,7.40
2017-11-12T13:00:31.888Z,7.07
2017-11-12T13:02:35.262Z,6.90
2017-11-12T13:07:35.070Z,7.77
2017-11-12T13:09:36.200Z,10.27
2017-11-12T13:11:38.097Z,25.67
2017-11-12T13:13:39.283Z,18.43
2017-11-12T13:15:40.469Z,18.73
2017-11-12T13:22:58.335Z,9.30
2017-11-12T13:27:52.270Z,40.40
2017-11-12T13:30:14.579Z,21.10
2017-11-12T13:32:16.467Z,13.33
2017-11-12T13:34:17.674Z,11.10
2017-11-12T13:36:18.723Z,11.47
2017-11-12T13:38:19.772Z,10.87
2017-11-12T13:40:20.830Z,10.53
2017-11-12T13:42:21.921Z,8.70
2017-11-12T13:44:23.737Z,10.70
2017-11-12T13:46:24.788Z,10.07
2017-11-12T13:48:26.038Z,10.00
2017-11-12T13:50:27.108Z,10.23
2017-11-12T13:52:28.582Z,9.50
2017-11-12T13:54:29.793Z,10.87
2017-11-12T13:56:30.902Z,9.90
2017-11-12T13:58:31.955Z,9.90
2017-11-12T14:00:33.014Z,10.37
2017-11-12T14:02:40.470Z,10.90
2017-11-12T14:04:41.680Z,14.03
2017-11-12T14:06:42.709Z,15.33
2017-11-12T14:08:43.771Z,12.00
2017-11-12T14:10:52.392Z,9.40
2017-11-12T14:13:00.077Z,12.80
2017-11-12T14:15:13.326Z,12.90
2017-11-12T14:17:14.508Z,11.27
2017-11-12T14:19:15.804Z,8.13
2017-11-12T14:21:16.980Z,10.33
2017-11-12T14:23:18.325Z,10.00
2017-11-12T14:25:19.420Z,9.70
2017-11-12T14:27:20.554Z,11.40
2017-11-12T14:29:21.694Z,10.70
2017-11-12T14:31:22.834Z,9.47
2017-11-12T14:33:23.887Z,9.50
2017-11-12T14:35:25.721Z,9.90
2017-11-12T15:19:04.367Z,6.07
2017-11-12T15:21:05.383Z,6.77
2017-11-12T15:23:07.206Z,6.83
2017-11-12T15:25:08.201Z,6.93
2017-11-12T15:27:09.225Z,6.20
2017-11-12T15:29:10.293Z,6.70
2017-11-12T15:31:11.560Z,7.57
2017-11-12T15:33:12.733Z,6.43
2017-11-12T15:35:13.804Z,6.70
2017-11-12T15:37:14.878Z,6.50
2017-11-12T15:39:16.079Z,7.07
2017-11-12T15:41:17.910Z,6.23
2017-11-12T15:43:19.045Z,7.80
2017-11-12T15:45:20.078Z,6.67
2017-11-12T15:47:30.176Z,7.40
2017-11-12T15:49:31.290Z,7.57
2017-11-12T15:51:32.297Z,8.43
2017-11-12T15:53:33.331Z,8.40
2017-11-12T15:55:34.325Z,8.70
2017-11-12T15:57:35.397Z,7.23
2017-11-12T15:59:36.948Z,7.40
2017-11-12T16:01:38.029Z,8.37
2017-11-12T16:03:39.038Z,8.20
2017-11-12T16:05:40.010Z,8.37
2017-11-12T16:07:41.035Z,9.17
2017-11-12T16:09:42.703Z,8.17
2017-11-12T16:11:44.303Z,7.83
2017-11-12T16:13:45.366Z,7.60
2017-11-12T16:15:46.365Z,8.63
2017-11-12T16:17:49.306Z,8.20
2017-11-12T16:19:50.402Z,8.97
2017-11-12T16:21:51.490Z,9.07
2017-11-12T16:23:53.448Z,9.13
2017-11-12T16:25:54.560Z,9.43
2017-11-12T16:27:56.363Z,8.83
2017-11-12T16:29:58.061Z,10.23
2017-11-12T16:32:00.679Z,9.93
2017-11-12T16:34:01.756Z,11.00
2017-11-12T16:36:02.878Z,10.50
2017-11-12T16:38:03.967Z,10.50
2017-11-12T16:40:04.982Z,11.17
2017-11-12T16:42:05.979Z,12.90
2017-11-12T16:44:06.996Z,12.23
2017-11-12T16:46:07.993Z,13.67
2017-11-12T16:48:09.058Z,13.20
2017-11-12T16:50:10.034Z,15.30
2017-11-12T16:52:11.041Z,16.37
2017-11-12T16:54:12.092Z,15.80
2017-11-12T16:56:13.095Z,17.50
2017-11-12T16:58:14.188Z,16.77
2017-11-12T17:00:15.204Z,18.20
2017-11-12T17:02:16.215Z,18.83
2017-11-12T17:04:21.748Z,16.87
2017-11-12T17:06:22.959Z,19.33
2017-11-12T17:08:24.150Z,21.73
2017-11-12T17:10:28.211Z,20.67
2017-11-12T17:12:29.432Z,20.07
2017-11-12T17:16:39.387Z,20.13
2017-11-12T17:18:40.491Z,19.67
2017-11-12T17:20:41.672Z,19.37
2017-11-12T17:22:42.837Z,21.90
2017-11-12T17:24:43.958Z,19.90
2017-11-12T17:26:45.115Z,20.33
2017-11-12T17:28:46.226Z,21.23
2017-11-12T17:33:21.235Z,22.37
2017-11-12T17:35:22.405Z,20.87
2017-11-12T17:37:23.481Z,22.20
2017-11-12T17:41:35.930Z,21.20
2017-11-12T17:43:37.180Z,22.70
2017-11-12T17:45:57.342Z,23.27
2017-11-12T17:48:02.848Z,23.40
2017-11-12T17:50:04.571Z,24.27
2017-11-12T17:52:05.553Z,23.40
2017-11-12T17:54:06.526Z,26.10
2017-11-12T17:56:07.507Z,26.63
2017-11-12T17:58:08.570Z,27.20
2017-11-12T18:00:10.568Z,28.97
2017-11-12T18:02:11.728Z,28.20
2017-11-12T18:04:13.575Z,29.60
2017-11-12T18:06:15.851Z,28.77
2017-11-12T18:08:17.076Z,29.60
2017-11-12T18:10:18.109Z,29.80
2017-11-12T18:12:19.112Z,29.43
2017-11-12T18:14:20.702Z,29.83
2017-11-12T18:16:22.305Z,30.83
2017-11-12T18:18:34.698Z,29.77
2017-11-12T18:20:35.758Z,29.60
2017-11-12T18:22:37.834Z,32.37
2017-11-12T18:24:39.078Z,30.90
2017-11-12T18:29:06.924Z,31.50
2017-11-12T18:31:09.015Z,33.40
2017-11-12T18:33:18.677Z,33.30
2017-11-12T18:38:08.949Z,34.03
2017-11-12T18:45:38.572Z,34.40
2017-11-12T18:47:45.130Z,34.00
2017-11-12T18:52:11.258Z,36.17
2017-11-12T18:54:12.493Z,36.90
2017-11-12T18:56:19.654Z,37.07
2017-11-12T18:58:22.406Z,37.00
2017-11-12T19:45:55.337Z,30.73
2017-11-12T19:48:04.963Z,34.93
2017-11-12T19:50:13.662Z,36.30
2017-11-12T19:55:20.273Z,35.60
2017-11-12T20:00:18.600Z,35.67
2017-11-12T20:31:36.540Z,39.20
2017-11-12T20:33:38.049Z,39.07
2017-11-12T20:38:30.926Z,37.10
2017-11-12T20:40:41.329Z,35.50
2017-11-12T20:42:53.031Z,35.60
2017-11-12T20:44:55.645Z,35.53
2017-11-12T20:47:08.421Z,31.90
2017-11-12T20:49:09.637Z,31.67
2017-11-12T20:51:13.799Z,32.43
2017-11-12T20:55:53.107Z,32.53
2017-11-12T20:57:54.173Z,32.63
2017-11-12T20:59:55.350Z,31.60
2017-11-12T21:01:57.104Z,30.67
2017-11-12T21:04:14.986Z,31.47
2017-11-12T21:11:37.813Z,30.80
2017-11-12T21:13:39.005Z,29.40
2017-11-12T21:15:40.277Z,30.63
2017-11-12T21:17:41.744Z,29.60
2017-11-12T21:19:43.738Z,29.87
2017-11-12T21:21:45.778Z,31.63
2017-11-12T21:23:47.996Z,31.70
2017-11-12T21:25:49.226Z,33.70
2017-11-12T21:27:50.375Z,32.27
2017-11-12T21:29:53.415Z,32.47
2017-11-12T21:31:55.584Z,32.00
2017-11-12T21:34:13.737Z,34.40
2017-11-12T21:36:14.862Z,31.70
2017-11-12T21:45:49.353Z,30.00
2017-11-12T21:47:50.429Z,31.70
2017-11-12T21:49:51.509Z,31.40
2017-11-12T21:51:52.561Z,30.97
2017-11-12T21:53:54.101Z,31.30
2017-11-12T21:55:55.297Z,34.80
2017-11-12T21:58:00.224Z,33.93
2017-11-12T22:05:06.260Z,30.37
2017-11-12T22:07:07.500Z,34.20
2017-11-12T22:09:24.586Z,31.03
2017-11-12T22:13:53.725Z,31.47
2017-11-12T22:18:41.675Z,30.37
2017-11-12T22:20:43.156Z,30.60
2017-11-12T22:22:44.930Z,32.27
2017-11-12T22:24:46.958Z,31.70
2017-11-12T22:26:56.190Z,31.43
2017-11-12T22:28:57.402Z,32.40
2017-11-12T22:30:59.174Z,32.70
2017-11-12T22:33:00.919Z,33.57
2017-11-12T22:35:04.694Z,33.27
2017-11-12T22:37:05.932Z,33.27
2017-11-12T22:39:06.991Z,34.07
2017-11-12T22:43:37.047Z,35.30
2017-11-12T22:45:38.118Z,37.07
2017-11-12T22:50:16.699Z,36.37
2017-11-12T22:52:17.893Z,35.77
2017-11-12T22:54:19.512Z,38.80
2017-11-12T22:56:21.095Z,36.63
2017-11-12T22:58:22.300Z,37.97
2017-11-12T23:00:24.046Z,37.00
2017-11-12T23:02:49.338Z,40.30
2017-11-12T23:07:18.443Z,39.60
2017-11-12T23:19:22.863Z,37.40
2017-11-12T23:21:24.297Z,38.13
2017-11-12T23:23:25.836Z,38.47
2017-11-12T23:25:38.935Z,36.93
2017-11-12T23:27:45.252Z,35.73
2017-11-12T23:32:41.502Z,37.77
2017-11-12T23:34:42.674Z,38.00
2017-11-12T23:36:44.190Z,34.80
2017-11-12T23:38:46.227Z,34.93
2017-11-12T23:40:54.231Z,31.03
2017-11-12T23:42:55.652Z,35.47
2017-11-12T23:47:15.350Z,32.90
2017-11-12T23:49:16.448Z,33.17
2017-11-12T23:51:23.993Z,32.73
2017-11-12T23:53:25.266Z,31.40
2017-11-12T23:55:26.390Z,32.60
